createdAt,value
2019-03-28T00:00:23.645Z,29.1
2019-03-28T00:01:12.824Z,28.9
2019-03-28T00:02:04.086Z,28.9
2019-03-28T00:02:53.196Z,28.8
2019-03-28T00:03:43.284Z,28.8
2019-03-28T00:04:32.496Z,28.7
2019-03-28T00:05:23.441Z,28.6
2019-03-28T00:06:14.023Z,28.3
2019-03-28T00:07:02.977Z,27.9
2019-03-28T00:07:53.848Z,27.6
2019-03-28T00:08:43.080Z,27.4
2019-03-28T00:09:34.261Z,27.3
2019-03-28T00:10:24.583Z,27.1
2019-03-28T00:11:14.208Z,27.1
2019-03-28T00:12:04.911Z,27
2019-03-28T00:12:54.220Z,26.9
2019-03-28T00:13:44.281Z,26.9
2019-03-28T00:14:34.363Z,26.9
2019-03-28T00:15:24.110Z,26.8
2019-03-28T00:16:14.465Z,26.8
2019-03-28T00:17:03.500Z,26.4
2019-03-28T00:17:54.180Z,26.1
2019-03-28T00:18:44.261Z,25.9
2019-03-28T00:19:33.491Z,25.8
2019-03-28T00:20:25.266Z,25.8
2019-03-28T00:21:13.300Z,25.7
2019-03-28T00:22:07.707Z,25.6
2019-03-28T00:22:54.557Z,25.6
2019-03-28T00:23:45.071Z,25.6
2019-03-28T00:24:34.687Z,25.6
2019-03-28T00:25:24.109Z,25.6
2019-03-28T00:26:15.019Z,25.5
2019-03-28T00:27:05.452Z,25.3
2019-03-28T00:27:55.620Z,25.1
2019-03-28T00:28:45.937Z,25
2019-03-28T00:29:35.819Z,24.9
2019-03-28T00:30:26.031Z,24.8
2019-03-28T00:31:16.170Z,24.8
2019-03-28T00:32:06.237Z,24.8
2019-03-28T00:32:55.957Z,24.8
2019-03-28T00:33:44.890Z,24.7
2019-03-28T00:34:35.690Z,24.7
2019-03-28T00:35:26.188Z,24.7
2019-03-28T00:36:15.431Z,24.6
2019-03-28T00:37:10.064Z,24.6
2019-03-28T00:37:56.571Z,24.9
2019-03-28T00:38:45.883Z,26.4
2019-03-28T00:39:35.569Z,27.8
2019-03-28T00:40:26.759Z,28.9
2019-03-28T00:41:15.807Z,29.8
2019-03-28T00:42:04.742Z,30.4
2019-03-28T00:42:56.638Z,30.9
2019-03-28T00:43:45.706Z,31.4
2019-03-28T00:44:36.486Z,31.8
2019-03-28T00:45:26.199Z,32.1
2019-03-28T00:46:16.618Z,32.4
2019-03-28T00:47:06.433Z,32.7
2019-03-28T00:47:56.465Z,32.9
2019-03-28T00:48:47.051Z,33.2
2019-03-28T00:49:37.130Z,33.3
2019-03-28T00:50:27.186Z,33.5
2019-03-28T00:51:17.046Z,33.7
2019-03-28T00:52:07.116Z,33
2019-03-28T00:52:57.411Z,32.8
2019-03-28T00:53:47.548Z,32.6
2019-03-28T00:54:37.018Z,32.4
2019-03-28T00:55:27.635Z,32.2
2019-03-28T00:56:17.353Z,32.1
2019-03-28T00:57:07.861Z,31.9
2019-03-28T00:57:57.023Z,31.8
2019-03-28T00:58:47.022Z,31.6
2019-03-28T00:59:37.409Z,31.5
2019-03-28T01:00:26.380Z,31.4
2019-03-28T01:01:17.510Z,31
2019-03-28T01:02:07.334Z,30.4
2019-03-28T01:02:57.116Z,30
2019-03-28T01:03:48.010Z,29.8
2019-03-28T01:04:37.464Z,29.5
2019-03-28T01:05:27.867Z,29.4
2019-03-28T01:06:17.327Z,29.3
2019-03-28T01:07:07.200Z,29.1
2019-03-28T01:07:57.072Z,29
2019-03-28T01:08:47.845Z,28.9
2019-03-28T01:09:38.482Z,28.9
2019-03-28T01:10:29.128Z,28.8
2019-03-28T01:11:19.357Z,28.7
2019-03-28T01:12:08.752Z,28.1
2019-03-28T01:12:59.092Z,27.6
2019-03-28T01:13:49.517Z,27.4
2019-03-28T01:14:38.599Z,27.1
2019-03-28T01:15:28.814Z,27.1
2019-03-28T01:16:19.017Z,26.9
2019-03-28T01:17:08.538Z,26.8
2019-03-28T01:17:59.961Z,26.8
2019-03-28T01:18:49.645Z,26.7
2019-03-28T01:19:39.525Z,26.7
2019-03-28T01:20:29.243Z,26.6
2019-03-28T01:21:19.794Z,26.6
2019-03-28T01:22:09.767Z,26.4
2019-03-28T01:23:00.111Z,26.1
2019-03-28T01:23:50.167Z,25.9
2019-03-28T01:24:39.699Z,25.8
2019-03-28T01:25:29.848Z,25.7
2019-03-28T01:26:20.409Z,25.6
2019-03-28T01:27:09.583Z,25.6
2019-03-28T01:28:00.368Z,25.5
2019-03-28T01:28:50.584Z,25.4
2019-03-28T01:29:40.216Z,25.4
2019-03-28T01:30:29.868Z,25.4
2019-03-28T01:31:18.881Z,25.4
2019-03-28T01:32:10.926Z,25.4
2019-03-28T01:33:00.872Z,25.3
2019-03-28T01:33:50.595Z,26.8
2019-03-28T01:34:40.866Z,28.1
2019-03-28T01:35:30.836Z,29.2
2019-03-28T01:36:21.017Z,29.9
2019-03-28T01:37:10.918Z,30.6
2019-03-28T01:38:00.663Z,31
2019-03-28T01:38:51.195Z,31.4
2019-03-28T01:39:41.406Z,31.8
2019-03-28T01:40:30.933Z,32.1
2019-03-28T01:41:21.283Z,32.4
2019-03-28T01:42:11.957Z,32.6
2019-03-28T01:43:00.890Z,32.9
2019-03-28T01:43:50.590Z,33.1
2019-03-28T01:44:40.326Z,33.3
2019-03-28T01:45:30.955Z,33.4
2019-03-28T01:46:20.975Z,33.6
2019-03-28T01:47:11.315Z,33.6
2019-03-28T01:47:59.970Z,32.9
2019-03-28T01:48:51.472Z,32.7
2019-03-28T01:49:40.948Z,32.4
2019-03-28T01:50:30.995Z,32.3
2019-03-28T01:51:20.834Z,32.1
2019-03-28T01:52:14.601Z,31.9
2019-03-28T01:53:02.027Z,31.8
2019-03-28T01:53:50.473Z,31.7
2019-03-28T01:54:41.030Z,31.6
2019-03-28T01:55:31.883Z,31.4
2019-03-28T01:56:24.809Z,31.3
2019-03-28T01:57:21.820Z,31.1
2019-03-28T01:58:01.518Z,30.4
2019-03-28T01:58:52.153Z,30
2019-03-28T01:59:42.193Z,29.7
2019-03-28T02:00:32.254Z,29.5
2019-03-28T02:01:22.082Z,29.3
2019-03-28T02:02:11.819Z,29.1
2019-03-28T02:03:02.749Z,29
2019-03-28T02:03:52.007Z,28.9
2019-03-28T02:04:42.636Z,28.8
2019-03-28T02:05:32.124Z,28.7
2019-03-28T02:06:21.834Z,28.7
2019-03-28T02:07:12.209Z,28.6
2019-03-28T02:08:05.190Z,28.1
2019-03-28T02:08:52.672Z,27.6
2019-03-28T02:09:43.284Z,27.3
2019-03-28T02:10:32.696Z,27.1
2019-03-28T02:11:22.887Z,26.9
2019-03-28T02:12:13.556Z,26.8
2019-03-28T02:13:03.816Z,26.8
2019-03-28T02:13:53.261Z,26.7
2019-03-28T02:14:43.834Z,26.6
2019-03-28T02:15:34.076Z,26.6
2019-03-28T02:16:23.887Z,26.5
2019-03-28T02:17:13.103Z,26.4
2019-03-28T02:18:03.277Z,26.4
2019-03-28T02:18:52.191Z,26.1
2019-03-28T02:19:43.921Z,25.8
2019-03-28T02:20:33.985Z,25.7
2019-03-28T02:21:23.818Z,25.6
2019-03-28T02:22:13.643Z,25.5
2019-03-28T02:23:03.699Z,25.4
2019-03-28T02:23:52.654Z,25.4
2019-03-28T02:24:42.764Z,25.4
2019-03-28T02:25:33.581Z,25.3
2019-03-28T02:26:23.286Z,25.3
2019-03-28T02:27:27.995Z,25.2
2019-03-28T02:28:03.524Z,27
2019-03-28T02:28:54.317Z,27.9
2019-03-28T02:29:43.305Z,28.9
2019-03-28T02:30:35.925Z,29.7
2019-03-28T02:31:25.887Z,30.3
2019-03-28T02:32:14.654Z,30.8
2019-03-28T02:33:05.414Z,31.1
2019-03-28T02:33:53.975Z,31.5
2019-03-28T02:34:44.326Z,31.8
2019-03-28T02:35:33.803Z,32.1
2019-03-28T02:36:25.035Z,32.3
2019-03-28T02:37:14.846Z,32.6
2019-03-28T02:38:05.028Z,32.8
2019-03-28T02:38:55.182Z,32.9
2019-03-28T02:39:44.953Z,33.1
2019-03-28T02:40:35.045Z,33.3
2019-03-28T02:41:25.183Z,33.4
2019-03-28T02:42:14.874Z,33.5
2019-03-28T02:43:05.013Z,33.6
2019-03-28T02:43:55.558Z,33
2019-03-28T02:44:46.554Z,32.7
2019-03-28T02:45:37.242Z,32.4
2019-03-28T02:46:26.102Z,32.3
2019-03-28T02:47:15.318Z,32.1
2019-03-28T02:48:06.161Z,31.9
2019-03-28T02:48:57.753Z,31.8
2019-03-28T02:49:46.233Z,31.6
2019-03-28T02:50:36.138Z,31.5
2019-03-28T02:51:26.409Z,31.4
2019-03-28T02:52:15.810Z,31.3
2019-03-28T02:53:05.108Z,31.2
2019-03-28T02:53:56.542Z,30.5
2019-03-28T02:54:46.612Z,30
2019-03-28T02:55:35.827Z,29.7
2019-03-28T02:56:27.045Z,29.4
2019-03-28T02:57:17.193Z,29.3
2019-03-28T02:58:06.320Z,29.1
2019-03-28T02:58:56.316Z,28.9
2019-03-28T02:59:46.454Z,28.8
2019-03-28T03:00:35.912Z,28.8
2019-03-28T03:01:31.220Z,28.6
2019-03-28T03:02:17.687Z,28.6
2019-03-28T03:03:07.023Z,28.4
2019-03-28T03:03:56.442Z,28.2
2019-03-28T03:07:26.749Z,26.9
2019-03-28T03:08:18.478Z,26.8
2019-03-28T03:09:08.493Z,26.7
2019-03-28T03:09:59.349Z,26.6
2019-03-28T03:10:48.628Z,26.6
2019-03-28T03:11:37.863Z,26.5
2019-03-28T03:12:28.783Z,26.4
2019-03-28T03:13:18.261Z,26.4
2019-03-28T03:14:08.223Z,26.4
2019-03-28T03:14:58.007Z,27.6
2019-03-28T03:15:48.626Z,28.8
2019-03-28T03:16:38.116Z,29.6
2019-03-28T03:17:27.636Z,30.1
2019-03-28T03:18:23.392Z,30.6
2019-03-28T03:19:09.288Z,31.1
2019-03-28T03:19:58.838Z,31.4
2019-03-28T03:20:49.512Z,31.7
2019-03-28T03:21:40.410Z,31.9
2019-03-28T03:22:29.376Z,32.1
2019-03-28T03:23:18.234Z,31.1
2019-03-28T03:24:08.279Z,29.1
2019-03-28T03:24:59.150Z,27.4
2019-03-28T03:25:48.337Z,27.4
2019-03-28T03:26:38.598Z,27.5
2019-03-28T03:27:29.210Z,28.8
2019-03-28T03:28:18.918Z,29.8
2019-03-28T03:29:09.437Z,30.5
2019-03-28T03:29:59.102Z,31.1
2019-03-28T03:30:49.633Z,31.6
2019-03-28T03:31:39.785Z,31.9
2019-03-28T03:32:29.905Z,32.3
2019-03-28T03:33:20.523Z,32.5
2019-03-28T03:34:12.744Z,32.8
2019-03-28T03:35:03.813Z,33
2019-03-28T03:35:49.254Z,33.2
2019-03-28T03:36:39.404Z,33.3
2019-03-28T03:37:30.378Z,33.4
2019-03-28T03:38:19.473Z,33.6
2019-03-28T03:39:09.321Z,32.9
2019-03-28T03:39:59.970Z,32.6
2019-03-28T03:40:49.725Z,32.4
2019-03-28T03:41:39.815Z,32.3
2019-03-28T03:42:30.347Z,32.1
2019-03-28T03:43:20.354Z,31.9
2019-03-28T03:44:10.780Z,31.7
2019-03-28T03:45:00.550Z,31.6
2019-03-28T03:45:50.802Z,31.4
2019-03-28T03:46:40.041Z,31.3
2019-03-28T03:47:30.127Z,31.2
2019-03-28T03:48:21.088Z,31.1
2019-03-28T03:49:11.111Z,30.4
2019-03-28T03:50:02.362Z,29.9
2019-03-28T03:50:51.663Z,29.6
2019-03-28T03:51:41.726Z,29.4
2019-03-28T03:52:30.732Z,29.2
2019-03-28T03:53:20.768Z,29.1
2019-03-28T03:54:10.847Z,28.9
2019-03-28T03:55:01.259Z,28.8
2019-03-28T03:55:50.939Z,28.8
2019-03-28T03:56:41.629Z,28.6
2019-03-28T03:57:31.136Z,28.6
2019-03-28T03:58:28.769Z,28.5
2019-03-28T03:59:12.263Z,28
2019-03-28T04:00:01.102Z,27.6
2019-03-28T04:00:51.689Z,27.3
2019-03-28T04:01:41.412Z,27.1
2019-03-28T04:02:30.633Z,26.9
2019-03-28T04:03:20.936Z,26.8
2019-03-28T04:04:11.963Z,26.8
2019-03-28T04:05:06.777Z,26.6
2019-03-28T04:05:52.235Z,26.6
2019-03-28T04:06:41.147Z,26.5
2019-03-28T04:07:31.625Z,26.3
2019-03-28T04:08:22.661Z,26.8
2019-03-28T04:09:12.224Z,28.1
2019-03-28T04:10:02.743Z,29.1
2019-03-28T04:10:52.330Z,29.9
2019-03-28T04:11:42.287Z,30.4
2019-03-28T04:12:32.750Z,30.8
2019-03-28T04:13:21.713Z,31.3
2019-03-28T04:14:12.950Z,31.6
2019-03-28T04:15:03.020Z,31.8
2019-03-28T04:15:52.454Z,32.1
2019-03-28T04:16:43.173Z,32.4
2019-03-28T04:17:32.788Z,32.6
2019-03-28T04:18:28.395Z,32.8
2019-03-28T04:19:12.802Z,32.9
2019-03-28T04:20:04.468Z,33.1
2019-03-28T04:20:54.163Z,33.3
2019-03-28T04:21:43.977Z,33.4
2019-03-28T04:22:33.214Z,33.6
2019-03-28T04:23:23.067Z,33.5
2019-03-28T04:24:13.698Z,32.9
2019-03-28T04:25:03.830Z,32.6
2019-03-28T04:25:53.577Z,32.4
2019-03-28T04:26:42.330Z,32.2
2019-03-28T04:27:32.745Z,32
2019-03-28T04:28:43.378Z,31.8
2019-03-28T04:29:13.727Z,31.6
2019-03-28T04:30:05.001Z,31.5
2019-03-28T04:30:53.308Z,31.4
2019-03-28T04:31:43.615Z,31.3
2019-03-28T04:32:33.621Z,31.1
2019-03-28T04:33:24.328Z,30.8
2019-03-28T04:34:19.821Z,30.2
2019-03-28T04:35:05.269Z,29.8
2019-03-28T04:35:55.215Z,29.5
2019-03-28T04:36:45.244Z,29.3
2019-03-28T04:37:35.147Z,29.2
2019-03-28T04:38:25.606Z,29
2019-03-28T04:39:14.077Z,28.9
2019-03-28T04:40:04.372Z,28.8
2019-03-28T04:40:54.530Z,28.7
2019-03-28T04:41:44.598Z,28.6
2019-03-28T04:42:34.018Z,28.5
2019-03-28T04:43:24.515Z,28.5
2019-03-28T04:45:08.383Z,27.4
2019-03-28T04:45:54.736Z,27.2
2019-03-28T04:46:45.778Z,27
2019-03-28T04:47:35.181Z,26.9
2019-03-28T04:48:24.378Z,26.8
2019-03-28T04:49:19.080Z,26.7
2019-03-28T04:50:04.920Z,26.6
2019-03-28T04:50:55.022Z,26.6
2019-03-28T04:51:44.865Z,26.3
2019-03-28T04:52:38.695Z,27.3
2019-03-28T04:53:24.745Z,28.6
2019-03-28T04:54:18.166Z,29.4
2019-03-28T04:55:05.775Z,30.1
2019-03-28T04:55:55.688Z,30.5
2019-03-28T04:56:46.476Z,30.9
2019-03-28T04:57:36.822Z,31.3
2019-03-28T04:58:43.348Z,31.6
2019-03-28T04:59:16.628Z,31.9
2019-03-28T05:00:04.947Z,32.1
2019-03-28T05:00:55.769Z,32.4
2019-03-28T05:02:05.067Z,32.6
2019-03-28T05:02:37.226Z,32.8
2019-03-28T05:03:26.897Z,32.9
2019-03-28T05:04:17.267Z,33.1
2019-03-28T05:05:07.417Z,33.3
2019-03-28T05:05:55.669Z,33.4
2019-03-28T05:06:47.395Z,33.5
2019-03-28T05:07:35.242Z,33.6
2019-03-28T05:08:25.262Z,32.9
2019-03-28T05:09:16.447Z,32.6
2019-03-28T05:10:06.124Z,32.3
2019-03-28T05:10:56.550Z,32.1
2019-03-28T05:11:45.879Z,31.9
2019-03-28T05:12:36.926Z,31.7
2019-03-28T05:13:27.977Z,31.5
2019-03-28T05:14:17.329Z,31.4
2019-03-28T05:15:07.990Z,31.2
2019-03-28T05:15:57.847Z,31.1
2019-03-28T05:16:46.942Z,30.9
2019-03-28T05:17:36.734Z,30.8
2019-03-28T05:18:26.779Z,30.3
2019-03-28T05:19:17.166Z,29.8
2019-03-28T05:20:07.412Z,29.5
2019-03-28T05:20:57.513Z,29.3
2019-03-28T05:21:47.137Z,29.1
2019-03-28T05:22:37.388Z,28.9
2019-03-28T05:23:27.981Z,28.8
2019-03-28T05:24:17.236Z,28.7
2019-03-28T05:25:08.674Z,28.6
2019-03-28T05:25:58.679Z,28.6
2019-03-28T05:26:48.376Z,28.4
2019-03-28T05:27:38.301Z,28.4
2019-03-28T05:28:28.834Z,28.1
2019-03-28T05:29:17.856Z,28.1
2019-03-28T05:30:10.659Z,29.2
2019-03-28T05:30:58.058Z,30.1
2019-03-28T05:31:47.543Z,30.6
2019-03-28T05:32:37.618Z,31
2019-03-28T05:33:28.406Z,31.4
2019-03-28T05:34:18.730Z,31.7
2019-03-28T05:35:09.439Z,32
2019-03-28T05:35:59.023Z,32.3
2019-03-28T05:36:52.951Z,32.5
2019-03-28T05:37:38.920Z,32.8
2019-03-28T05:38:28.275Z,32.9
2019-03-28T05:39:18.381Z,33.1
2019-03-28T05:40:09.105Z,33.3
2019-03-28T05:40:58.455Z,33.4
2019-03-28T05:41:47.346Z,33.6
2019-03-28T05:42:39.125Z,33.2
2019-03-28T05:43:28.603Z,32.8
2019-03-28T05:44:18.118Z,32.5
2019-03-28T05:45:08.982Z,32.3
2019-03-28T05:45:59.105Z,32.1
2019-03-28T05:46:49.397Z,31.9
2019-03-28T05:47:39.882Z,31.6
2019-03-28T05:48:28.487Z,31.3
2019-03-28T05:49:19.297Z,31.1
2019-03-28T05:50:09.698Z,30.7
2019-03-28T05:50:59.052Z,30.3
2019-03-28T05:51:49.485Z,30
2019-03-28T05:52:38.634Z,29.6
2019-03-28T05:53:30.357Z,29.3
2019-03-28T05:54:18.681Z,28.9
2019-03-28T05:55:12.902Z,28.6
2019-03-28T05:55:59.049Z,28.2
2019-03-28T05:56:50.115Z,27.9
2019-03-28T05:57:39.975Z,27.5
2019-03-28T05:58:29.981Z,27.1
2019-03-28T05:59:22.371Z,26.8
2019-03-28T06:00:09.506Z,26.4
2019-03-28T06:01:00.907Z,26.1
2019-03-28T06:01:50.440Z,25.7
2019-03-28T06:02:40.576Z,25.7
2019-03-28T06:05:28.809Z,29
2019-03-28T06:06:18.476Z,30
2019-03-28T06:07:22.241Z,30.6
2019-03-28T06:07:57.404Z,31.3
2019-03-28T06:09:03.239Z,31.5
2019-03-28T06:09:53.132Z,31.9
2019-03-28T06:10:27.617Z,30.8
2019-03-28T06:11:18.378Z,29.9
2019-03-28T06:12:08.051Z,27.7
2019-03-28T06:13:12.516Z,27.3
2019-03-28T06:14:03.382Z,27.4
2019-03-28T06:14:38.214Z,28.8
2019-03-28T06:15:28.327Z,29.6
2019-03-28T06:16:18.048Z,30.4
2019-03-28T06:17:21.918Z,31
2019-03-28T06:18:00.112Z,31.7
2019-03-28T06:18:49.743Z,32
2019-03-28T06:19:39.288Z,32.4
2019-03-28T06:20:27.796Z,32.7
2019-03-28T06:21:18.863Z,32.9
2019-03-28T06:22:09.233Z,33.2
2019-03-28T06:22:58.526Z,33.4
2019-03-28T06:23:49.070Z,33.6
2019-03-28T06:24:39.720Z,33.8
2019-03-28T06:25:31.968Z,33.1
2019-03-28T06:26:19.480Z,32.8
2019-03-28T06:27:09.468Z,32.5
2019-03-28T06:27:59.341Z,32.2
2019-03-28T06:28:47.727Z,31.9
2019-03-28T06:29:38.767Z,31.6
2019-03-28T06:30:29.037Z,31.2
2019-03-28T06:31:19.532Z,30.9
2019-03-28T06:32:10.692Z,30.6
2019-03-28T06:33:02.678Z,30.2
2019-03-28T06:33:49.025Z,29.9
2019-03-28T06:34:39.107Z,29.6
2019-03-28T06:35:32.254Z,29.3
2019-03-28T06:36:20.318Z,29.1
2019-03-28T06:37:10.562Z,28.8
2019-03-28T06:38:02.008Z,28.5
2019-03-28T06:38:50.329Z,28.3
2019-03-28T06:39:42.692Z,28
2019-03-28T06:40:30.054Z,27.8
2019-03-28T06:41:19.632Z,27.6
2019-03-28T06:42:09.724Z,27.3
2019-03-28T06:43:00.030Z,27.1
2019-03-28T06:43:51.006Z,26.9
2019-03-28T06:44:40.109Z,26.7
2019-03-28T06:45:30.189Z,26.4
2019-03-28T06:46:20.271Z,26.3
2019-03-28T06:47:09.431Z,26.1
2019-03-28T06:48:00.646Z,25.8
2019-03-28T06:48:49.098Z,25.6
2019-03-28T06:49:40.019Z,25.4
2019-03-28T06:50:30.329Z,25.1
2019-03-28T06:51:20.559Z,24.9
2019-03-28T06:52:10.653Z,24.8
2019-03-28T06:53:00.444Z,25.1
2019-03-28T06:53:50.967Z,26.2
2019-03-28T06:54:40.949Z,27.9
2019-03-28T06:55:37.396Z,29.2
2019-03-28T06:56:25.179Z,30.1
2019-03-28T06:57:10.239Z,30.8
2019-03-28T06:58:00.887Z,31.3
2019-03-28T06:58:50.817Z,31.8
2019-03-28T06:59:47.583Z,32.1
2019-03-28T07:00:31.005Z,32.6
2019-03-28T07:01:21.241Z,32.8
2019-03-28T07:02:11.014Z,33.1
2019-03-28T07:03:00.375Z,33.4
2019-03-28T07:05:34.080Z,33.9
2019-03-28T07:06:17.641Z,33.1
2019-03-28T07:07:08.123Z,32.9
2019-03-28T07:07:57.280Z,32.6
2019-03-28T07:08:47.343Z,32.4
2019-03-28T07:09:38.043Z,32.2
2019-03-28T07:10:27.832Z,31.9
2019-03-28T07:11:17.648Z,31.8
2019-03-28T07:12:06.436Z,31.5
2019-03-28T07:12:57.502Z,31.3
2019-03-28T07:13:47.579Z,31.1
2019-03-28T07:14:38.255Z,30.9
2019-03-28T07:15:28.362Z,30.7
2019-03-28T07:16:17.521Z,30.5
2019-03-28T07:17:08.151Z,30.3
2019-03-28T07:17:57.982Z,30.2
2019-03-28T07:18:48.240Z,30
2019-03-28T07:19:38.385Z,29.9
2019-03-28T07:20:28.496Z,29.7
2019-03-28T07:21:18.799Z,29.6
2019-03-28T07:22:07.838Z,29.4
2019-03-28T07:22:57.947Z,29.3
2019-03-28T07:23:48.851Z,29.2
2019-03-28T07:24:38.594Z,29
2019-03-28T07:25:31.692Z,28.9
2019-03-28T07:26:18.706Z,28.8
2019-03-28T07:27:07.992Z,28.6
2019-03-28T07:27:58.351Z,28.4
2019-03-28T07:28:48.124Z,28.3
2019-03-28T07:29:54.596Z,28.2
2019-03-28T07:30:29.444Z,28
2019-03-28T07:31:19.339Z,27.9
2019-03-28T07:32:09.301Z,27.8
2019-03-28T07:32:59.009Z,27.6
2019-03-28T07:33:49.311Z,27.5
2019-03-28T07:34:38.093Z,27.4
2019-03-28T07:35:28.409Z,27.3
2019-03-28T07:36:18.973Z,27.1
2019-03-28T07:37:09.368Z,27
2019-03-28T07:37:58.597Z,26.9
2019-03-28T07:38:49.117Z,26.8
2019-03-28T07:39:39.321Z,26.6
2019-03-28T07:40:33.198Z,26.4
2019-03-28T07:41:22.380Z,26.3
2019-03-28T07:42:09.271Z,27.1
2019-03-28T07:43:00.090Z,28.4
2019-03-28T07:43:50.432Z,29.7
2019-03-28T07:44:43.535Z,30.6
2019-03-28T07:45:34.872Z,31.2
2019-03-28T07:46:19.446Z,31.6
2019-03-28T07:47:10.199Z,31.8
2019-03-28T07:48:00.990Z,32.1
2019-03-28T07:48:50.672Z,32.1
2019-03-28T07:49:43.547Z,31.7
2019-03-28T07:50:34.430Z,31.4
2019-03-28T07:51:20.549Z,31.3
2019-03-28T07:52:11.603Z,31
2019-03-28T07:53:01.855Z,30.8
2019-03-28T07:53:52.237Z,30.6
2019-03-28T07:54:41.770Z,30.4
2019-03-28T07:55:32.059Z,30.3
2019-03-28T07:56:21.137Z,30.1
2019-03-28T07:57:11.577Z,29.9
2019-03-28T07:58:00.382Z,29.8
2019-03-28T07:58:54.103Z,29.6
2019-03-28T07:59:44.968Z,29.4
2019-03-28T08:00:31.402Z,29.3
2019-03-28T08:01:24.984Z,29.2
2019-03-28T08:02:10.507Z,29.1
2019-03-28T08:03:05.145Z,28.9
2019-03-28T08:03:52.017Z,28.8
2019-03-28T08:04:41.455Z,28.7
2019-03-28T08:05:31.597Z,28.6
2019-03-28T08:06:24.166Z,28.4
2019-03-28T08:07:10.684Z,28.3
2019-03-28T08:08:01.204Z,28.3
2019-03-28T08:08:53.804Z,28.1
2019-03-28T08:09:46.574Z,28
2019-03-28T08:10:31.389Z,27.9
2019-03-28T08:12:29.226Z,27.7
2019-03-28T08:13:02.045Z,27.6
2019-03-28T08:13:52.148Z,27.5
2019-03-28T08:14:42.594Z,27.4
2019-03-28T08:15:32.773Z,27.3
2019-03-28T08:16:21.516Z,27.2
2019-03-28T08:17:12.426Z,27.1
2019-03-28T08:18:02.959Z,27
2019-03-28T08:18:53.513Z,26.9
2019-03-28T08:19:47.001Z,26.8
2019-03-28T08:20:32.925Z,26.7
2019-03-28T08:21:23.014Z,26.5
2019-03-28T08:22:11.683Z,26.6
2019-03-28T08:23:02.019Z,28
2019-03-28T08:23:52.883Z,29.3
2019-03-28T08:24:42.386Z,30.3
2019-03-28T08:25:33.111Z,30.9
2019-03-28T08:26:23.060Z,31.4
2019-03-28T08:27:12.943Z,31.8
2019-03-28T08:28:06.182Z,32.1
2019-03-28T08:28:53.258Z,32.4
2019-03-28T08:29:43.349Z,31.9
2019-03-28T08:30:33.105Z,31.6
2019-03-28T08:31:24.592Z,31.4
2019-03-28T08:32:17.297Z,31.3
2019-03-28T08:33:04.353Z,31
2019-03-28T08:33:53.895Z,30.9
2019-03-28T08:34:44.604Z,30.7
2019-03-28T08:35:33.271Z,30.5
2019-03-28T08:36:23.629Z,30.4
2019-03-28T08:37:13.420Z,30.2
2019-03-28T08:38:03.974Z,30.1
2019-03-28T08:38:53.995Z,29.9
2019-03-28T08:39:47.445Z,29.8
2019-03-28T08:40:33.406Z,29.7
2019-03-28T08:41:24.695Z,29.6
2019-03-28T08:42:13.160Z,29.4
2019-03-28T08:43:03.777Z,29.3
2019-03-28T08:43:53.587Z,29.3
2019-03-28T08:44:44.850Z,29.1
2019-03-28T08:45:34.972Z,29
2019-03-28T08:46:23.981Z,28.9
2019-03-28T08:47:15.642Z,28.8
2019-03-28T08:48:04.400Z,28.7
2019-03-28T08:48:54.480Z,28.6
2019-03-28T08:49:44.530Z,28.5
2019-03-28T08:50:34.841Z,28.4
2019-03-28T08:51:28.162Z,28.3
2019-03-28T08:52:18.374Z,28.3
2019-03-28T08:53:04.045Z,28.1
2019-03-28T08:53:54.300Z,28.1
2019-03-28T08:54:44.566Z,27.9
2019-03-28T08:55:34.258Z,27.9
2019-03-28T08:56:24.231Z,27.8
2019-03-28T08:57:16.361Z,27.6
2019-03-28T08:58:05.196Z,27.6
2019-03-28T08:58:54.939Z,27.5
2019-03-28T08:59:44.931Z,27.4
2019-03-28T09:01:01.704Z,27.3
2019-03-28T09:01:25.407Z,27.1
2019-03-28T09:03:04.956Z,29.1
2019-03-28T09:03:58.761Z,30.3
2019-03-28T09:04:45.838Z,31
2019-03-28T09:05:35.921Z,31.4
2019-03-28T09:06:27.581Z,31.8
2019-03-28T09:07:19.446Z,32.1
2019-03-28T09:08:06.586Z,32.4
2019-03-28T09:08:55.803Z,32.3
2019-03-28T09:09:46.666Z,31.9
2019-03-28T09:10:36.044Z,31.6
2019-03-28T09:11:29.716Z,31.4
2019-03-28T09:12:16.398Z,31.3
2019-03-28T09:13:06.680Z,31.1
2019-03-28T09:13:56.688Z,30.9
2019-03-28T09:14:46.890Z,30.8
2019-03-28T09:15:51.735Z,30.6
2019-03-28T09:16:26.687Z,30.4
2019-03-28T09:17:15.613Z,30.3
2019-03-28T09:18:09.271Z,30.2
2019-03-28T09:18:56.647Z,30
2019-03-28T09:19:48.593Z,29.9
2019-03-28T09:20:36.643Z,29.8
2019-03-28T09:21:27.077Z,29.7
2019-03-28T09:22:16.735Z,29.6
2019-03-28T09:23:07.168Z,29.5
2019-03-28T09:23:57.165Z,29.4
2019-03-28T09:24:47.248Z,29.3
2019-03-28T09:25:36.992Z,29.2
2019-03-28T09:26:27.550Z,29.1
2019-03-28T09:27:17.735Z,29
2019-03-28T09:28:06.609Z,28.9
2019-03-28T09:28:57.850Z,28.8
2019-03-28T09:29:46.276Z,28.8
2019-03-28T09:30:54.769Z,28.6
2019-03-28T09:31:29.644Z,28.5
2019-03-28T09:32:17.232Z,28.4
2019-03-28T09:33:06.689Z,28.3
2019-03-28T09:33:57.000Z,28.3
2019-03-28T09:34:47.189Z,28.2
2019-03-28T09:35:39.687Z,28.1
2019-03-28T09:36:28.837Z,28
2019-03-28T09:37:18.779Z,27.9
2019-03-28T09:38:57.964Z,27.7
2019-03-28T09:39:48.577Z,27.1
2019-03-28T09:40:38.544Z,28.4
2019-03-28T09:41:27.959Z,29.8
2019-03-28T09:42:19.069Z,30.8
2019-03-28T09:43:08.650Z,31.3
2019-03-28T09:44:05.976Z,31.7
2019-03-28T09:44:49.229Z,32.1
2019-03-28T09:45:39.876Z,32.4
2019-03-28T09:46:27.999Z,32.8
2019-03-28T09:47:17.476Z,32.1
2019-03-28T09:48:12.736Z,31.8
2019-03-28T09:48:58.559Z,31.6
2019-03-28T09:49:48.848Z,31.4
2019-03-28T09:50:38.843Z,31.3
2019-03-28T09:51:28.311Z,31.1
2019-03-28T09:52:19.463Z,30.9
2019-03-28T09:53:10.558Z,30.8
2019-03-28T09:53:59.176Z,30.6
2019-03-28T09:54:48.791Z,30.5
2019-03-28T09:55:39.550Z,30.4
2019-03-28T09:56:29.563Z,30.3
2019-03-28T09:57:18.986Z,30.1
2019-03-28T09:58:09.948Z,30
2019-03-28T09:59:03.009Z,29.9
2019-03-28T09:59:49.468Z,29.8
2019-03-28T10:00:44.255Z,29.7
2019-03-28T10:01:29.850Z,29.6
2019-03-28T10:02:19.880Z,29.4
2019-03-28T10:03:09.315Z,29.3
2019-03-28T10:04:00.208Z,29.3
2019-03-28T10:06:27.085Z,29
2019-03-28T10:07:17.159Z,28.9
2019-03-28T10:08:06.866Z,28.8
2019-03-28T10:08:56.830Z,28.7
2019-03-28T10:09:51.440Z,28.6
2019-03-28T10:10:37.636Z,28.5
2019-03-28T10:11:26.383Z,28.4
2019-03-28T10:12:17.313Z,28.3
2019-03-28T10:13:07.568Z,28.3
2019-03-28T10:13:57.364Z,28.1
2019-03-28T10:14:48.210Z,28
2019-03-28T10:15:41.749Z,27.9
2019-03-28T10:17:17.426Z,27.3
2019-03-28T10:18:07.967Z,28.6
2019-03-28T10:18:58.249Z,29.9
2019-03-28T10:19:49.698Z,30.8
2019-03-28T10:20:38.358Z,31.3
2019-03-28T10:21:28.446Z,31.7
2019-03-28T10:22:18.821Z,32.1
2019-03-28T10:23:08.822Z,32.4
2019-03-28T10:23:58.158Z,32.8
2019-03-28T10:24:48.643Z,32.2
2019-03-28T10:25:38.303Z,32
2019-03-28T10:26:28.475Z,31.8
2019-03-28T10:27:22.090Z,31.6
2019-03-28T10:28:08.750Z,31.4
2019-03-28T10:28:58.485Z,31.2
2019-03-28T10:29:47.983Z,31.1
2019-03-28T10:30:38.320Z,30.9
2019-03-28T10:31:28.923Z,30.8
2019-03-28T10:32:33.904Z,30.6
2019-03-28T10:33:08.632Z,30.4
2019-03-28T10:33:59.839Z,30.3
2019-03-28T10:34:48.242Z,30.2
2019-03-28T10:35:38.670Z,30.1
2019-03-28T10:36:32.147Z,29.9
2019-03-28T10:37:18.312Z,29.8
2019-03-28T10:38:09.154Z,29.8
2019-03-28T10:38:58.903Z,29.6
2019-03-28T10:39:49.091Z,29.5
2019-03-28T10:40:39.507Z,29.4
2019-03-28T10:41:34.644Z,29.3
2019-03-28T10:42:19.152Z,29.3
2019-03-28T10:43:09.567Z,29.1
2019-03-28T10:43:58.757Z,29.1
2019-03-28T10:44:49.887Z,29
2019-03-28T10:45:43.319Z,28.9
2019-03-28T10:46:29.719Z,28.8
2019-03-28T10:47:19.397Z,28.7
2019-03-28T10:48:10.127Z,28.6
2019-03-28T10:49:04.121Z,28.5
2019-03-28T10:49:51.116Z,28.4
2019-03-28T10:50:55.392Z,28.3
2019-03-28T10:51:30.860Z,28.2
2019-03-28T10:52:22.389Z,28.1
2019-03-28T10:53:10.239Z,28.1
2019-03-28T10:54:00.684Z,28
2019-03-28T10:54:51.302Z,27.4
2019-03-28T10:55:40.234Z,28.8
2019-03-28T10:56:33.399Z,30.1
2019-03-28T10:57:40.293Z,31
2019-03-28T10:58:28.127Z,31.6
2019-03-28T10:59:00.179Z,31.9
2019-03-28T10:59:51.616Z,32.1
2019-03-28T11:00:40.253Z,32.5
2019-03-28T11:02:00.373Z,32.9
2019-03-28T11:02:22.690Z,32.1
2019-03-28T11:03:13.105Z,32
2019-03-28T11:04:02.335Z,31.8
2019-03-28T11:04:52.360Z,31.6
2019-03-28T11:05:42.595Z,31.4
2019-03-28T11:06:32.450Z,31.3
2019-03-28T11:07:21.733Z,31.1
2019-03-28T11:08:12.096Z,30.9
2019-03-28T11:09:01.358Z,30.8
2019-03-28T11:09:51.643Z,30.6
2019-03-28T11:10:41.513Z,30.5
2019-03-28T11:11:32.576Z,30.4
2019-03-28T11:12:21.899Z,30.3
2019-03-28T11:13:16.002Z,30.2
2019-03-28T11:14:01.959Z,30.1
2019-03-28T11:14:55.603Z,29.9
2019-03-28T11:15:41.256Z,29.9
2019-03-28T11:16:33.115Z,29.8
2019-03-28T11:17:22.825Z,29.7
2019-03-28T11:18:12.614Z,29.6
2019-03-28T11:19:02.843Z,29.5
2019-03-28T11:19:56.901Z,29.4
2019-03-28T11:20:47.145Z,29.3